Flight Track Log - Related Links

Times and Time Zones

All times are in EST time to prevent confusion due to time zone crossing. See the AAY894 flight status page for this flight to view local times or setup timezone preferences in your user account.

Time Position Orientation Groundspeed Altitude Reporting Facility
EST Latitude Longitude Course Direction KTS MPH feet Rate Location/Type
Sat 07:07:27 AM 27.9333 -82.7000 41° Northeast 162 186 900  Level Tampa TRACON
Sat 07:07:57 AM 27.9500 -82.6833 41° Northeast 155 178 2,200 1,962 Climbing Tampa TRACON
Sat 07:10:06 AM 28.0725 -82.6644 North 194 223 6,100 2,190 Climbing Jacksonville Center
Sat 07:11:06 AM 28.1497 -82.6667 359° North 237 273 9,100 2,400 Climbing Jacksonville Center
Sat 07:12:06 AM 28.2311 -82.6758 354° North 268 308 10,900 1,550 Climbing Jacksonville Center
Sat 07:13:06 AM 28.3250 -82.6875 354° North 308 354 12,200 1,750 Climbing Jacksonville Center
Sat 07:14:06 AM 28.4314 -82.7014 353° North 355 409 14,400 2,100 Climbing Jacksonville Center
Sat 07:15:06 AM 28.5464 -82.7131 355° North 387 445 16,400 2,150 Climbing Jacksonville Center
Sat 07:16:06 AM 28.6631 -82.7269 354° North 407 468 18,700 2,050 Climbing Jacksonville Center
Sat 07:17:06 AM 28.7656 -82.7364 355° North 407 468 20,500 1,750 Climbing Jacksonville Center
Sat 07:18:06 AM 28.8844 -82.7478 355° North 413 475 22,200 1,650 Climbing Jacksonville Center
Sat 07:19:06 AM 29.0075 -82.7525 358° North 425 489 23,800 1,450 Climbing Jacksonville Center
Sat 07:20:06 AM 29.1308 -82.7594 357° North 431 496 25,100 1,650 Climbing Jacksonville Center
Sat 07:21:06 AM 29.2561 -82.7617 359° North 443 510 27,100 1,650 Climbing Jacksonville Center
Sat 07:22:06 AM 29.3814 -82.7592 North 443 510 28,400 1,400 Climbing Jacksonville Center
Sat 07:23:06 AM 29.5192 -82.7614 359° North 446 513 29,900 1,250 Climbing Jacksonville Center
Sat 07:24:06 AM 29.6422 -82.7589 North 442 509 30,900 550 Climbing Jacksonville Center
Sat 07:25:06 AM 29.7675 -82.7586 360° North 442 509 31,000 50 Climbing Jacksonville Center
Sat 07:26:06 AM 29.8928 -82.7561 North 442 509 31,000 -50 Level Jacksonville Center
Sat 07:27:06 AM 30.0139 -82.7583 359° North 442 509 30,900 -50 Descending Jacksonville Center
Sat 07:28:06 AM 30.1244 -82.7556 North 442 509 30,900  Level Jacksonville Center
Sat 07:29:06 AM 30.2644 -82.7531 North 442 509 30,900 50 Level Jacksonville Center
Sat 07:30:06 AM 30.3875 -82.7528 360° North 442 509 31,000  Climbing Jacksonville Center
Sat 07:31:07 AM 30.5108 -82.7528 360° North 437 503 30,900  Descending Jacksonville Center
Sat 07:32:06 AM 30.6339 -82.7550 359° North 437 503 31,000 50 Climbing Jacksonville Center
Sat 07:33:06 AM 30.7550 -82.7378 North 437 503 31,000  Level Jacksonville Center
Sat 07:34:06 AM 30.8781 -82.7039 13° North 443 510 31,000 -50 Level Jacksonville Center
Sat 07:35:06 AM 31.0033 -82.6672 14° North 448 516 30,900 -50 Descending Jacksonville Center
Sat 07:36:06 AM 31.1264 -82.6328 13° North 453 521 30,900 50 Level Jacksonville Center
Sat 07:37:06 AM 31.2497 -82.5961 14° North 453 521 31,000 50 Climbing Jacksonville Center
Sat 07:38:06 AM 31.3603 -82.5667 13° North 448 516 31,000  Level Jacksonville Center
Sat 07:39:06 AM 31.4853 -82.5247 16° North 454 522 31,000  Level Jacksonville Center
Sat 07:41:10 AM 31.7514 -82.4783 North 461 531 31,000  Level Atlanta Center
Sat 07:42:10 AM 31.8742 -82.4567 North 461 531 31,000  Level Atlanta Center
Sat 07:43:10 AM 31.9950 -82.4397 North 442 509 31,000  Level Atlanta Center
Sat 07:44:10 AM 32.1158 -82.4181 North 442 509 31,000  Level Atlanta Center
Sat 07:45:10 AM 32.2367 -82.4011 North 442 509 31,000  Level Atlanta Center
Sat 07:46:10 AM 32.3428 -82.3794 10° North 436 502 31,000  Level Atlanta Center
Sat 07:47:10 AM 32.4678 -82.3647 North 436 502 31,000  Level Atlanta Center
Sat 07:48:10 AM 32.5928 -82.3425 North 446 513 31,000  Level Atlanta Center
Sat 07:49:10 AM 32.7156 -82.3231 North 446 513 31,000  Level Atlanta Center
Sat 07:50:10 AM 32.8386 -82.3033 North 446 513 31,000  Level Atlanta Center
Sat 07:51:10 AM 32.9569 -82.2689 14° North 446 513 31,000 550 Level Atlanta Center
Sat 07:52:10 AM 33.0775 -82.2217 18° North 446 513 32,100 1,000 Climbing Atlanta Center
Sat 07:53:10 AM 33.1981 -82.1967 10° North 446 513 33,000 450 Climbing Atlanta Center
Sat 07:54:10 AM 33.3189 -82.1719 10° North 446 513 33,000  Level Atlanta Center
Sat 07:55:10 AM 33.4372 -82.1444 11° North 441 507 33,000  Level Atlanta Center
Sat 07:56:10 AM 33.5600 -82.1167 11° North 441 507 33,000  Level Atlanta Center
Sat 07:57:10 AM 33.6828 -82.0892 11° North 441 507 33,000  Level Atlanta Center
Sat 07:58:10 AM 33.8158 -82.0586 11° North 449 517 33,000  Level Atlanta Center
Sat 07:59:10 AM 33.9386 -82.0306 11° North 444 511 33,000  Level Atlanta Center
Sat 08:00:10 AM 34.0592 -82.0053 10° North 444 511 33,000  Level Atlanta Center
Sat 08:01:10 AM 34.1778 -81.9772 11° North 444 511 33,000  Level Atlanta Center
Sat 08:02:10 AM 34.2961 -81.9517 10° North 439 505 33,000  Level Atlanta Center
Sat 08:03:10 AM 34.4147 -81.9261 10° North 439 505 33,000  Level Atlanta Center
Sat 08:04:10 AM 34.5333 -81.9006 10° North 434 499 33,000  Level Atlanta Center
Sat 08:05:10 AM 34.6558 -81.8747 10° North 428 493 33,000  Level Atlanta Center
Sat 08:06:10 AM 34.7722 -81.8439 12° North 428 493 33,000  Level Atlanta Center
Sat 08:07:10 AM 34.8928 -81.8178 10° North 428 493 33,000  Level Atlanta Center
Sat 08:08:10 AM 35.0156 -81.7944 North 428 493 33,000  Level Atlanta Center
Sat 08:09:10 AM 35.1358 -81.7631 12° North 428 493 33,000  Level Atlanta Center
Sat 08:10:10 AM 35.2522 -81.7344 11° North 428 493 33,000  Level Atlanta Center
Sat 08:11:10 AM 35.3728 -81.7083 10° North 428 493 33,000  Level Atlanta Center
Sat 08:12:10 AM 35.4933 -81.6792 11° North 428 493 33,000  Level Atlanta Center
Sat 08:13:10 AM 35.6136 -81.6503 11° North 428 493 33,000  Level Atlanta Center
Sat 08:14:10 AM 35.7342 -81.6211 11° North 433 498 33,000  Level Atlanta Center
Sat 08:15:10 AM 35.8567 -81.5944 10° North 433 498 33,000  Level Atlanta Center
Sat 08:16:10 AM 35.9625 -81.5683 11° North 433 498 33,000  Level Atlanta Center
Sat 08:17:10 AM 36.0850 -81.5389 11° North 433 498 33,000  Level Atlanta Center
Sat 08:18:10 AM 36.2033 -81.5119 10° North 433 498 33,000  Level Atlanta Center
Sat 08:20:19 AM 36.4653 -81.4450 12° North 440 506 33,000  Level Indianapolis Center
Sat 08:21:21 AM 36.5828 -81.4172 11° North 436 502 33,000  Level Indianapolis Center
Sat 08:22:22 AM 36.7025 -81.3881 11° North 440 506 33,000  Level Indianapolis Center
Sat 08:23:23 AM 36.8467 -81.3533 11° North 445 512 33,000  Level Indianapolis Center
Sat 08:24:25 AM 36.9669 -81.3233 11° North 448 516 33,000  Level Indianapolis Center
Sat 08:25:26 AM 37.0928 -81.2933 11° North 448 516 33,000  Level Indianapolis Center
Sat 08:26:27 AM 37.2131 -81.2636 11° North 444 511 33,000  Level Indianapolis Center
Sat 08:27:29 AM 37.3197 -81.2381 11° North 444 511 33,000  Level Indianapolis Center
Sat 08:28:30 AM 37.4617 -81.2028 11° North 443 510 33,000  Level Indianapolis Center
Sat 08:29:32 AM 37.5828 -81.1733 11° North 446 513 33,000  Level Indianapolis Center
Sat 08:30:33 AM 37.7019 -81.1444 11° North 446 513 33,000  Level Indianapolis Center
Sat 08:31:34 AM 37.8281 -81.1103 12° North 445 512 33,000  Level Indianapolis Center
Sat 08:32:36 AM 37.9469 -81.0767 13° North 444 511 33,000  Level Indianapolis Center
Sat 08:33:37 AM 38.0683 -81.0386 14° North 444 511 33,000  Level Indianapolis Center
Sat 08:34:38 AM 38.1856 -80.9922 17° North 444 511 33,000  Level Indianapolis Center
Sat 08:35:40 AM 38.3042 -80.9456 17° North 444 511 33,000  Level Indianapolis Center
Sat 08:36:41 AM 38.4469 -80.8908 17° North 445 512 33,000  Level Indianapolis Center
Sat 08:37:43 AM 38.5661 -80.8439 17° North 445 512 33,000  Level Indianapolis Center
Sat 08:38:44 AM 38.6847 -80.7969 17° North 447 514 33,000  Level Indianapolis Center
Sat 08:39:45 AM 38.8047 -80.7500 17° North 448 516 33,000  Level Indianapolis Center
Sat 08:40:47 AM 38.9242 -80.7025 17° North 449 517 33,000  Level Indianapolis Center
Sat 08:41:48 AM 39.0444 -80.6556 17° North 449 517 33,000  Level Indianapolis Center
Sat 08:42:50 AM 39.1653 -80.6078 17° North 450 518 33,000  Level Indianapolis Center
Sat 08:43:51 AM 39.2867 -80.5589 17° North 454 522 33,000  Level Indianapolis Center
Sat 08:44:53 AM 39.4311 -80.5017 17° North 454 522 33,000  Level Indianapolis Center
Sat 08:45:54 AM 39.5519 -80.4556 16° North 454 522 33,000  Level Indianapolis Center
Sat 08:46:35 AM 39.6267 -80.4261 17° North 448 516 33,000  Level Cleveland Center
Sat 08:47:36 AM 39.7461 -80.3794 17° North 447 514 33,000  Level Cleveland Center
Sat 08:48:37 AM 39.8650 -80.3306 18° North 448 516 33,000  Level Cleveland Center
Sat 08:49:39 AM 39.9842 -80.2822 17° North 449 517 33,000  Level Cleveland Center
Sat 08:50:40 AM 40.1036 -80.2333 17° North 449 517 33,000  Level Cleveland Center
Sat 08:51:41 AM 40.2236 -80.1839 17° North 450 518 33,000  Level Cleveland Center
Sat 08:52:43 AM 40.3600 -80.1261 18° North 451 519 33,000  Level Cleveland Center
Sat 08:53:44 AM 40.4811 -80.0772 17° North 452 520 33,000  Level Cleveland Center
Sat 08:54:45 AM 40.6008 -80.0275 18° North 453 521 33,000  Level Cleveland Center
Sat 08:55:47 AM 40.7183 -79.9792 17° North 453 521 33,000 -390 Level Cleveland Center
Sat 08:56:48 AM 40.8403 -79.9539 North 450 518 32,200 -1,073 Descending Cleveland Center
Sat 08:57:50 AM 40.9828 -79.9364 North 437 503 30,800 -1,561 Descending Cleveland Center
Sat 08:58:51 AM 41.1047 -79.8842 18° North 459 528 29,000 -1,869 Descending Cleveland Center
Sat 08:59:52 AM 41.2278 -79.8283 19° North 461 531 27,000 -2,293 Descending Cleveland Center
Sat 09:00:54 AM 41.3475 -79.7722 19° North 441 507 24,300 -1,463 Descending Cleveland Center
Sat 09:01:55 AM 41.4569 -79.7233 19° North 439 505 24,000 -146 Descending Cleveland Center
Sat 09:02:57 AM 41.5717 -79.6711 19° North 437 503 24,000 -488 Level Cleveland Center
Sat 09:03:58 AM 41.6853 -79.6181 19° North 436 502 23,000 -1,561 Descending Cleveland Center
Sat 09:05:00 AM 41.7961 -79.5675 19° North 427 491 20,800 -2,049 Descending Cleveland Center
Sat 09:06:01 AM 41.9008 -79.5194 19° North 404 465 18,800 -2,213 Descending Cleveland Center
Sat 09:07:02 AM 42.0211 -79.4628 19° North 383 441 16,300 -2,244 Descending Cleveland Center
Sat 09:08:04 AM 42.1169 -79.4169 20° North 367 422 14,200 -2,049 Descending Cleveland Center
Sat 09:09:05 AM 42.2092 -79.3747 19° North 354 407 12,100 -1,561 Descending Cleveland Center
Sat 09:10:07 AM 42.2992 -79.3339 19° North 343 395 11,000 -537 Descending Cleveland Center
Sat 09:11:08 AM 42.3894 -79.2922 19° North 343 395 11,000 -98 Level Cleveland Center
Sat 09:12:09 AM 42.4911 -79.2458 19° North 342 394 10,800 -537 Descending Cleveland Center
Sat 09:13:11 AM 42.5694 -79.2078 20° North 301 346 9,900 -1,171 Descending Cleveland Center
Sat 09:14:12 AM 42.6436 -79.1714 20° North 276 318 8,400 -1,366 Descending Cleveland Center
Sat 09:15:14 AM 42.7103 -79.1397 19° North 268 308 7,100 -1,317 Descending Cleveland Center
Sat 09:16:15 AM 42.7728 -79.0892 31° Northeast 265 305 5,700 -1,024 Descending Cleveland Center
Sat 09:17:17 AM 42.8289 -79.0231 41° Northeast 261 300 5,000 -341 Descending Cleveland Center
Sat 09:18:18 AM 42.8794 -78.9628 41° Northeast 240 276 5,000 -197 Level Cleveland Center
Sat 09:19:19 AM 42.9253 -78.9039 43° Northeast 239 275 4,600 -583 Descending Cleveland Center
Sat 09:20:01 AM 42.9667 -78.8667 33° Northeast 216 249 4,000 -350 Descending Buffalo TRACON
Sat 09:21:02 AM 43.0000 -78.8000 56° Northeast 206 237 4,000 -298 Level Buffalo TRACON
Sat 09:22:02 AM 43.0333 -78.7500 48° Northeast 189 217 3,400 -800 Descending Buffalo TRACON
Sat 09:23:02 AM 43.0833 -78.7333 14° North 192 221 2,400 -579 Descending Buffalo TRACON
Sat 09:23:56 AM 43.1000 -78.7833 295° West 162 186 2,300 -400 Descending Buffalo TRACON
Sat 09:25:02 AM 43.1167 -78.8500 289° West 162 186 1,600 -636 Descending Buffalo TRACON
Sat 09:26:08 AM 43.1167 -78.9167 270° West 121 139 900 -636 Descending Buffalo TRACON

Login

Don't have an account? Register now (free) for customized features, flight alerts, and more!